sensor_id;sensor_type;location;lat;lon;timestamp;temperature;humidity
54832;DHT22;40730;53.068;6.572;2022-09-17T00:01:52;9.40;99.90
54832;DHT22;40730;53.068;6.572;2022-09-17T00:04:18;9.30;99.90
54832;DHT22;40730;53.068;6.572;2022-09-17T00:06:43;9.30;99.90
54832;DHT22;40730;53.068;6.572;2022-09-17T00:09:09;9.30;99.90
54832;DHT22;40730;53.068;6.572;2022-09-17T00:11:37;9.20;99.90
54832;DHT22;40730;53.068;6.572;2022-09-17T00:14:04;9.20;99.90
54832;DHT22;40730;53.068;6.572;2022-09-17T00:16:43;9.10;99.90
54832;DHT22;40730;53.068;6.572;2022-09-17T00:19:18;9.10;99.90
54832;DHT22;40730;53.068;6.572;2022-09-17T00:21:43;9.10;99.90
54832;DHT22;40730;53.068;6.572;2022-09-17T00:24:11;9.10;99.90
54832;DHT22;40730;53.068;6.572;2022-09-17T00:26:37;9.20;99.90
54832;DHT22;40730;53.068;6.572;2022-09-17T00:29:03;9.20;99.90
54832;DHT22;40730;53.068;6.572;2022-09-17T00:31:30;9.30;99.90
54832;DHT22;40730;53.068;6.572;2022-09-17T00:33:56;9.40;99.90
54832;DHT22;40730;53.068;6.572;2022-09-17T00:36:22;9.50;99.90
54832;DHT22;40730;53.068;6.572;2022-09-17T00:38:49;9.50;99.90
54832;DHT22;40730;53.068;6.572;2022-09-17T00:41:15;9.60;99.90
54832;DHT22;40730;53.068;6.572;2022-09-17T00:49:08;10.10;99.90
54832;DHT22;40730;53.068;6.572;2022-09-17T00:51:39;10.20;99.90
54832;DHT22;40730;53.068;6.572;2022-09-17T00:54:08;10.20;99.90
54832;DHT22;40730;53.068;6.572;2022-09-17T00:56:37;10.20;99.90
54832;DHT22;40730;53.068;6.572;2022-09-17T00:59:03;10.20;99.90
54832;DHT22;40730;53.068;6.572;2022-09-17T01:01:30;10.20;99.90
54832;DHT22;40730;53.068;6.572;2022-09-17T01:03:56;10.10;99.90
54832;DHT22;40730;53.068;6.572;2022-09-17T01:22:47;9.70;99.90
54832;DHT22;40730;53.068;6.572;2022-09-17T01:25:49;9.60;99.90
54832;DHT22;40730;53.068;6.572;2022-09-17T01:31:00;9.30;99.90
54832;DHT22;40730;53.068;6.572;2022-09-17T01:36:19;9.10;99.90
54832;DHT22;40730;53.068;6.572;2022-09-17T01:39:13;9.00;99.90
54832;DHT22;40730;53.068;6.572;2022-09-17T01:44:39;8.90;99.90
54832;DHT22;40730;53.068;6.572;2022-09-17T01:47:28;8.80;99.90
54832;DHT22;40730;53.068;6.572;2022-09-17T01:50:02;8.70;99.90
54832;DHT22;40730;53.068;6.572;2022-09-17T01:52:31;8.70;99.90
54832;DHT22;40730;53.068;6.572;2022-09-17T01:55:03;8.70;99.90
54832;DHT22;40730;53.068;6.572;2022-09-17T01:57:35;8.60;99.90
54832;DHT22;40730;53.068;6.572;2022-09-17T02:00:08;8.60;99.90
54832;DHT22;40730;53.068;6.572;2022-09-17T02:05:15;8.60;99.90
54832;DHT22;40730;53.068;6.572;2022-09-17T02:07:50;8.60;99.90
54832;DHT22;40730;53.068;6.572;2022-09-17T02:10:23;8.60;99.90
54832;DHT22;40730;53.068;6.572;2022-09-17T02:12:55;8.50;99.90
54832;DHT22;40730;53.068;6.572;2022-09-17T02:15:27;8.60;99.90
54832;DHT22;40730;53.068;6.572;2022-09-17T02:18:02;8.60;99.90
54832;DHT22;40730;53.068;6.572;2022-09-17T02:21:01;8.60;99.90
54832;DHT22;40730;53.068;6.572;2022-09-17T02:23:35;8.60;99.90
54832;DHT22;40730;53.068;6.572;2022-09-17T02:26:14;8.60;99.90
54832;DHT22;40730;53.068;6.572;2022-09-17T02:28:46;8.60;99.90
54832;DHT22;40730;53.068;6.572;2022-09-17T02:31:14;8.60;99.90
54832;DHT22;40730;53.068;6.572;2022-09-17T02:33:41;8.60;99.90
54832;DHT22;40730;53.068;6.572;2022-09-17T02:36:08;8.70;99.90
54832;DHT22;40730;53.068;6.572;2022-09-17T02:38:33;8.80;99.90
54832;DHT22;40730;53.068;6.572;2022-09-17T02:41:22;9.00;99.90
54832;DHT22;40730;53.068;6.572;2022-09-17T02:57:19;9.80;99.90
54832;DHT22;40730;53.068;6.572;2022-09-17T03:00:13;9.80;99.90
54832;DHT22;40730;53.068;6.572;2022-09-17T03:02:49;9.80;99.90
54832;DHT22;40730;53.068;6.572;2022-09-17T03:05:17;9.70;99.90
54832;DHT22;40730;53.068;6.572;2022-09-17T03:07:44;9.70;99.90
54832;DHT22;40730;53.068;6.572;2022-09-17T03:10:10;9.70;99.90
54832;DHT22;40730;53.068;6.572;2022-09-17T03:12:36;9.60;99.90
54832;DHT22;40730;53.068;6.572;2022-09-17T03:15:02;9.60;99.90
54832;DHT22;40730;53.068;6.572;2022-09-17T03:17:28;9.50;99.90
54832;DHT22;40730;53.068;6.572;2022-09-17T03:19:54;9.50;99.90
54832;DHT22;40730;53.068;6.572;2022-09-17T03:22:19;9.40;99.90
54832;DHT22;40730;53.068;6.572;2022-09-17T03:24:45;9.40;99.90
54832;DHT22;40730;53.068;6.572;2022-09-17T03:27:10;9.30;99.90
54832;DHT22;40730;53.068;6.572;2022-09-17T03:29:36;9.30;99.90
54832;DHT22;40730;53.068;6.572;2022-09-17T03:32:02;9.30;99.90
54832;DHT22;40730;53.068;6.572;2022-09-17T03:34:28;9.30;99.90
54832;DHT22;40730;53.068;6.572;2022-09-17T03:36:53;9.20;99.90
54832;DHT22;40730;53.068;6.572;2022-09-17T03:39:19;9.20;99.90
54832;DHT22;40730;53.068;6.572;2022-09-17T03:41:44;9.30;99.90
54832;DHT22;40730;53.068;6.572;2022-09-17T03:44:10;9.40;99.90
54832;DHT22;40730;53.068;6.572;2022-09-17T03:46:36;9.50;99.90
54832;DHT22;40730;53.068;6.572;2022-09-17T03:49:02;9.50;99.90
54832;DHT22;40730;53.068;6.572;2022-09-17T03:51:27;9.50;99.90
54832;DHT22;40730;53.068;6.572;2022-09-17T03:53:53;9.50;99.90
54832;DHT22;40730;53.068;6.572;2022-09-17T03:56:18;9.50;99.90
54832;DHT22;40730;53.068;6.572;2022-09-17T03:58:44;9.50;99.90
54832;DHT22;40730;53.068;6.572;2022-09-17T04:01:10;9.50;99.90
54832;DHT22;40730;53.068;6.572;2022-09-17T04:03:35;9.40;99.90
54832;DHT22;40730;53.068;6.572;2022-09-17T04:06:01;9.50;99.90
54832;DHT22;40730;53.068;6.572;2022-09-17T04:08:27;9.40;99.90
54832;DHT22;40730;53.068;6.572;2022-09-17T04:10:52;9.30;99.90
54832;DHT22;40730;53.068;6.572;2022-09-17T04:13:18;9.30;99.90
54832;DHT22;40730;53.068;6.572;2022-09-17T04:15:45;9.20;99.90
54832;DHT22;40730;53.068;6.572;2022-09-17T04:18:11;9.10;99.90
54832;DHT22;40730;53.068;6.572;2022-09-17T04:20:37;9.10;99.90
54832;DHT22;40730;53.068;6.572;2022-09-17T04:23:02;9.00;99.90
54832;DHT22;40730;53.068;6.572;2022-09-17T04:25:28;9.00;99.90
54832;DHT22;40730;53.068;6.572;2022-09-17T04:27:54;8.90;99.90
54832;DHT22;40730;53.068;6.572;2022-09-17T04:30:20;8.90;99.90
54832;DHT22;40730;53.068;6.572;2022-09-17T04:32:46;8.90;99.90
54832;DHT22;40730;53.068;6.572;2022-09-17T04:35:12;8.90;99.90
54832;DHT22;40730;53.068;6.572;2022-09-17T04:37:38;8.90;99.90
54832;DHT22;40730;53.068;6.572;2022-09-17T04:40:04;8.90;99.90
54832;DHT22;40730;53.068;6.572;2022-09-17T04:42:30;8.90;99.90
54832;DHT22;40730;53.068;6.572;2022-09-17T04:44:55;8.90;99.90
54832;DHT22;40730;53.068;6.572;2022-09-17T04:47:22;8.90;99.90
54832;DHT22;40730;53.068;6.572;2022-09-17T04:49:48;8.90;99.90
54832;DHT22;40730;53.068;6.572;2022-09-17T04:52:14;8.80;99.90
54832;DHT22;40730;53.068;6.572;2022-09-17T04:54:39;8.80;99.90
54832;DHT22;40730;53.068;6.572;2022-09-17T04:57:05;8.80;99.90
54832;DHT22;40730;53.068;6.572;2022-09-17T04:59:31;8.80;99.90
54832;DHT22;40730;53.068;6.572;2022-09-17T05:01:57;8.80;99.90
54832;DHT22;40730;53.068;6.572;2022-09-17T05:04:22;8.90;99.90
54832;DHT22;40730;53.068;6.572;2022-09-17T05:06:48;8.90;99.90
54832;DHT22;40730;53.068;6.572;2022-09-17T05:09:14;8.90;99.90
54832;DHT22;40730;53.068;6.572;2022-09-17T05:11:40;8.90;99.90
54832;DHT22;40730;53.068;6.572;2022-09-17T05:14:05;9.00;99.90
54832;DHT22;40730;53.068;6.572;2022-09-17T05:16:31;8.90;99.90
54832;DHT22;40730;53.068;6.572;2022-09-17T05:18:57;8.90;99.90
54832;DHT22;40730;53.068;6.572;2022-09-17T05:21:22;8.90;99.90
54832;DHT22;40730;53.068;6.572;2022-09-17T05:23:48;8.80;99.90
54832;DHT22;40730;53.068;6.572;2022-09-17T05:26:14;8.80;99.90
54832;DHT22;40730;53.068;6.572;2022-09-17T05:28:40;8.80;99.90
54832;DHT22;40730;53.068;6.572;2022-09-17T05:31:06;8.90;99.90
54832;DHT22;40730;53.068;6.572;2022-09-17T05:33:32;9.00;99.90
54832;DHT22;40730;53.068;6.572;2022-09-17T05:35:57;9.10;99.90
54832;DHT22;40730;53.068;6.572;2022-09-17T05:38:24;9.20;99.90
54832;DHT22;40730;53.068;6.572;2022-09-17T05:40:50;9.40;99.90
54832;DHT22;40730;53.068;6.572;2022-09-17T05:43:16;9.50;99.90
54832;DHT22;40730;53.068;6.572;2022-09-17T05:45:42;9.60;99.90
54832;DHT22;40730;53.068;6.572;2022-09-17T05:48:11;9.90;99.90
54832;DHT22;40730;53.068;6.572;2022-09-17T05:50:37;10.10;99.90
54832;DHT22;40730;53.068;6.572;2022-09-17T05:53:07;10.20;99.90
54832;DHT22;40730;53.068;6.572;2022-09-17T05:55:34;10.10;99.90
54832;DHT22;40730;53.068;6.572;2022-09-17T05:58:10;10.10;99.90
54832;DHT22;40730;53.068;6.572;2022-09-17T06:00:36;10.00;99.90
54832;DHT22;40730;53.068;6.572;2022-09-17T06:03:02;9.90;99.90
54832;DHT22;40730;53.068;6.572;2022-09-17T06:05:28;9.90;99.90
54832;DHT22;40730;53.068;6.572;2022-09-17T06:07:53;9.80;99.90
54832;DHT22;40730;53.068;6.572;2022-09-17T06:10:19;9.80;99.90
54832;DHT22;40730;53.068;6.572;2022-09-17T06:12:44;9.80;99.90
54832;DHT22;40730;53.068;6.572;2022-09-17T06:15:10;9.70;99.90
54832;DHT22;40730;53.068;6.572;2022-09-17T06:17:39;9.70;99.90
54832;DHT22;40730;53.068;6.572;2022-09-17T06:20:05;9.60;99.90
54832;DHT22;40730;53.068;6.572;2022-09-17T06:22:31;9.50;99.90
54832;DHT22;40730;53.068;6.572;2022-09-17T06:24:57;9.50;99.90
54832;DHT22;40730;53.068;6.572;2022-09-17T06:27:32;9.60;99.90
54832;DHT22;40730;53.068;6.572;2022-09-17T06:29:58;9.70;99.90
54832;DHT22;40730;53.068;6.572;2022-09-17T06:32:24;9.80;99.90
54832;DHT22;40730;53.068;6.572;2022-09-17T06:34:49;9.80;99.90
54832;DHT22;40730;53.068;6.572;2022-09-17T06:37:15;9.70;99.90
54832;DHT22;40730;53.068;6.572;2022-09-17T06:39:41;9.70;99.90
54832;DHT22;40730;53.068;6.572;2022-09-17T06:42:06;9.70;99.90
54832;DHT22;40730;53.068;6.572;2022-09-17T06:44:32;9.60;99.90
54832;DHT22;40730;53.068;6.572;2022-09-17T06:46:57;9.60;99.90
54832;DHT22;40730;53.068;6.572;2022-09-17T06:49:23;9.80;99.90
54832;DHT22;40730;53.068;6.572;2022-09-17T06:51:49;9.90;99.90
54832;DHT22;40730;53.068;6.572;2022-09-17T06:54:14;10.10;99.90
54832;DHT22;40730;53.068;6.572;2022-09-17T06:56:40;10.20;99.90
54832;DHT22;40730;53.068;6.572;2022-09-17T06:59:05;10.30;99.90
54832;DHT22;40730;53.068;6.572;2022-09-17T07:01:31;10.20;99.90
54832;DHT22;40730;53.068;6.572;2022-09-17T07:03:57;10.20;99.90
54832;DHT22;40730;53.068;6.572;2022-09-17T07:06:23;10.20;99.90
54832;DHT22;40730;53.068;6.572;2022-09-17T07:08:48;10.10;99.90
54832;DHT22;40730;53.068;6.572;2022-09-17T07:11:14;10.00;99.90
54832;DHT22;40730;53.068;6.572;2022-09-17T07:13:40;9.90;99.90
54832;DHT22;40730;53.068;6.572;2022-09-17T07:16:07;10.10;99.90
54832;DHT22;40730;53.068;6.572;2022-09-17T07:18:34;10.40;99.90
54832;DHT22;40730;53.068;6.572;2022-09-17T07:21:01;10.70;99.90
54832;DHT22;40730;53.068;6.572;2022-09-17T07:23:29;11.10;99.90
54832;DHT22;40730;53.068;6.572;2022-09-17T07:26:00;11.20;99.90
54832;DHT22;40730;53.068;6.572;2022-09-17T07:28:26;11.20;99.90
54832;DHT22;40730;53.068;6.572;2022-09-17T07:30:54;11.00;99.90
54832;DHT22;40730;53.068;6.572;2022-09-17T07:33:22;11.00;99.90
54832;DHT22;40730;53.068;6.572;2022-09-17T07:35:55;11.10;99.90
54832;DHT22;40730;53.068;6.572;2022-09-17T07:38:22;11.40;99.90
54832;DHT22;40730;53.068;6.572;2022-09-17T07:41:04;11.50;99.90
54832;DHT22;40730;53.068;6.572;2022-09-17T07:43:32;11.60;99.90
54832;DHT22;40730;53.068;6.572;2022-09-17T07:45:59;11.70;99.90
54832;DHT22;40730;53.068;6.572;2022-09-17T07:48:26;11.90;99.90
54832;DHT22;40730;53.068;6.572;2022-09-17T07:50:52;12.10;99.90
54832;DHT22;40730;53.068;6.572;2022-09-17T07:53:18;12.30;99.90
54832;DHT22;40730;53.068;6.572;2022-09-17T07:55:57;12.50;99.90
54832;DHT22;40730;53.068;6.572;2022-09-17T07:58:28;12.70;99.90
54832;DHT22;40730;53.068;6.572;2022-09-17T08:01:06;13.00;99.90
54832;DHT22;40730;53.068;6.572;2022-09-17T08:03:33;13.30;99.90
54832;DHT22;40730;53.068;6.572;2022-09-17T08:06:03;13.60;99.90
54832;DHT22;40730;53.068;6.572;2022-09-17T08:08:31;13.90;99.90
54832;DHT22;40730;53.068;6.572;2022-09-17T08:11:05;14.30;99.90
54832;DHT22;40730;53.068;6.572;2022-09-17T08:13:31;14.60;99.90
54832;DHT22;40730;53.068;6.572;2022-09-17T08:16:01;14.60;99.90
54832;DHT22;40730;53.068;6.572;2022-09-17T08:18:28;14.20;99.90
54832;DHT22;40730;53.068;6.572;2022-09-17T08:20:58;13.70;99.90
54832;DHT22;40730;53.068;6.572;2022-09-17T08:23:24;13.10;99.90
54832;DHT22;40730;53.068;6.572;2022-09-17T08:25:54;12.60;99.90
54832;DHT22;40730;53.068;6.572;2022-09-17T08:28:21;12.10;99.90
54832;DHT22;40730;53.068;6.572;2022-09-17T08:30:47;11.80;99.90
54832;DHT22;40730;53.068;6.572;2022-09-17T08:33:13;11.50;99.90
54832;DHT22;40730;53.068;6.572;2022-09-17T08:35:39;11.20;99.90
54832;DHT22;40730;53.068;6.572;2022-09-17T08:38:05;11.10;99.90
54832;DHT22;40730;53.068;6.572;2022-09-17T08:40:38;11.50;99.90
54832;DHT22;40730;53.068;6.572;2022-09-17T08:43:07;12.20;99.90
54832;DHT22;40730;53.068;6.572;2022-09-17T08:45:36;12.80;99.90
54832;DHT22;40730;53.068;6.572;2022-09-17T08:48:02;12.90;99.90
54832;DHT22;40730;53.068;6.572;2022-09-17T08:50:35;13.10;99.90
54832;DHT22;40730;53.068;6.572;2022-09-17T08:53:37;13.60;99.90
54832;DHT22;40730;53.068;6.572;2022-09-17T08:56:15;14.00;99.90
54832;DHT22;40730;53.068;6.572;2022-09-17T09:02:11;14.30;99.90
54832;DHT22;40730;53.068;6.572;2022-09-17T09:04:55;13.80;99.90
54832;DHT22;40730;53.068;6.572;2022-09-17T09:07:26;13.20;99.90
54832;DHT22;40730;53.068;6.572;2022-09-17T09:12:32;12.10;99.90
54832;DHT22;40730;53.068;6.572;2022-09-17T09:17:49;11.50;99.90
54832;DHT22;40730;53.068;6.572;2022-09-17T09:20:18;11.50;99.90
54832;DHT22;40730;53.068;6.572;2022-09-17T09:22:49;12.10;99.90
54832;DHT22;40730;53.068;6.572;2022-09-17T09:25:21;12.60;99.90
54832;DHT22;40730;53.068;6.572;2022-09-17T09:30:56;12.40;99.90
54832;DHT22;40730;53.068;6.572;2022-09-17T09:33:34;12.20;99.90
54832;DHT22;40730;53.068;6.572;2022-09-17T09:36:02;12.00;99.90
54832;DHT22;40730;53.068;6.572;2022-09-17T09:38:42;11.80;99.90
54832;DHT22;40730;53.068;6.572;2022-09-17T09:41:17;12.60;99.90
54832;DHT22;40730;53.068;6.572;2022-09-17T09:43:45;14.10;99.90
54832;DHT22;40730;53.068;6.572;2022-09-17T09:49:14;14.10;99.90
54832;DHT22;40730;53.068;6.572;2022-09-17T09:52:04;13.60;99.90
54832;DHT22;40730;53.068;6.572;2022-09-17T09:57:20;12.70;99.90
54832;DHT22;40730;53.068;6.572;2022-09-17T09:59:47;12.90;99.90
54832;DHT22;40730;53.068;6.572;2022-09-17T10:02:13;13.80;99.90
54832;DHT22;40730;53.068;6.572;2022-09-17T10:04:39;14.70;99.90
54832;DHT22;40730;53.068;6.572;2022-09-17T10:07:09;15.70;99.90
54832;DHT22;40730;53.068;6.572;2022-09-17T10:09:37;16.60;99.90
54832;DHT22;40730;53.068;6.572;2022-09-17T10:14:42;18.00;99.90
54832;DHT22;40730;53.068;6.572;2022-09-17T10:17:23;17.50;99.90
54832;DHT22;40730;53.068;6.572;2022-09-17T10:20:12;16.50;99.90
54832;DHT22;40730;53.068;6.572;2022-09-17T10:22:45;15.60;99.90
54832;DHT22;40730;53.068;6.572;2022-09-17T10:27:44;16.80;99.90
54832;DHT22;40730;53.068;6.572;2022-09-17T10:32:36;18.10;99.90
54832;DHT22;40730;53.068;6.572;2022-09-17T10:37:51;19.00;99.90
54832;DHT22;40730;53.068;6.572;2022-09-17T10:45:25;17.30;96.40
54832;DHT22;40730;53.068;6.572;2022-09-17T10:47:51;16.10;99.90
54832;DHT22;40730;53.068;6.572;2022-09-17T10:50:20;15.30;99.90
54832;DHT22;40730;53.068;6.572;2022-09-17T10:52:49;14.60;99.90
54832;DHT22;40730;53.068;6.572;2022-09-17T11:00:18;13.20;99.90
54832;DHT22;40730;53.068;6.572;2022-09-17T11:05:47;12.50;99.90
54832;DHT22;40730;53.068;6.572;2022-09-17T11:16:38;14.60;99.90
54832;DHT22;40730;53.068;6.572;2022-09-17T11:21:49;15.00;99.90
54832;DHT22;40730;53.068;6.572;2022-09-17T11:24:32;16.00;99.90
54832;DHT22;40730;53.068;6.572;2022-09-17T11:27:27;16.90;99.90
54832;DHT22;40730;53.068;6.572;2022-09-17T11:30:07;17.50;99.40
54832;DHT22;40730;53.068;6.572;2022-09-17T11:32:46;17.60;97.90
54832;DHT22;40730;53.068;6.572;2022-09-17T11:35:24;16.70;99.30
54832;DHT22;40730;53.068;6.572;2022-09-17T11:37:57;15.90;99.90
54832;DHT22;40730;53.068;6.572;2022-09-17T11:40:36;15.20;99.90
54832;DHT22;40730;53.068;6.572;2022-09-17T11:43:25;14.60;99.90
54832;DHT22;40730;53.068;6.572;2022-09-17T11:46:07;14.40;99.90
54832;DHT22;40730;53.068;6.572;2022-09-17T11:48:39;14.50;99.90
54832;DHT22;40730;53.068;6.572;2022-09-17T11:51:26;15.40;99.90
54832;DHT22;40730;53.068;6.572;2022-09-17T11:54:06;15.20;99.90
54832;DHT22;40730;53.068;6.572;2022-09-17T11:56:45;14.80;99.90
54832;DHT22;40730;53.068;6.572;2022-09-17T12:04:52;18.00;98.70
54832;DHT22;40730;53.068;6.572;2022-09-17T12:15:55;19.40;80.80
54832;DHT22;40730;53.068;6.572;2022-09-17T12:18:34;19.60;79.90
54832;DHT22;40730;53.068;6.572;2022-09-17T12:21:08;20.00;79.10
54832;DHT22;40730;53.068;6.572;2022-09-17T12:23:56;20.30;76.10
54832;DHT22;40730;53.068;6.572;2022-09-17T12:27:14;20.30;73.90
54832;DHT22;40730;53.068;6.572;2022-09-17T12:37:26;20.20;69.70
54832;DHT22;40730;53.068;6.572;2022-09-17T12:40:04;20.50;69.40
54832;DHT22;40730;53.068;6.572;2022-09-17T12:54:30;19.50;62.50
54832;DHT22;40730;53.068;6.572;2022-09-17T12:59:59;20.10;62.20
54832;DHT22;40730;53.068;6.572;2022-09-17T13:02:32;19.80;63.30
54832;DHT22;40730;53.068;6.572;2022-09-17T13:18:19;16.70;73.80
54832;DHT22;40730;53.068;6.572;2022-09-17T13:21:07;16.30;74.30
54832;DHT22;40730;53.068;6.572;2022-09-17T13:23:41;16.60;74.60
54832;DHT22;40730;53.068;6.572;2022-09-17T13:26:09;16.50;73.30
54832;DHT22;40730;53.068;6.572;2022-09-17T13:28:43;17.20;71.70
54832;DHT22;40730;53.068;6.572;2022-09-17T13:31:10;17.80;68.20
54832;DHT22;40730;53.068;6.572;2022-09-17T13:33:58;18.40;63.70
54832;DHT22;40730;53.068;6.572;2022-09-17T13:36:37;18.80;63.50
54832;DHT22;40730;53.068;6.572;2022-09-17T13:39:05;19.00;62.40
54832;DHT22;40730;53.068;6.572;2022-09-17T13:41:34;19.10;64.50
54832;DHT22;40730;53.068;6.572;2022-09-17T13:44:03;19.30;63.10
54832;DHT22;40730;53.068;6.572;2022-09-17T13:46:29;19.10;59.70
54832;DHT22;40730;53.068;6.572;2022-09-17T13:49:04;18.60;59.70
54832;DHT22;40730;53.068;6.572;2022-09-17T13:53:59;17.50;59.90
54832;DHT22;40730;53.068;6.572;2022-09-17T13:56:32;16.90;62.00
54832;DHT22;40730;53.068;6.572;2022-09-17T13:59:07;16.30;63.40
54832;DHT22;40730;53.068;6.572;2022-09-17T14:01:57;16.00;63.90
54832;DHT22;40730;53.068;6.572;2022-09-17T14:04:34;16.20;65.70
54832;DHT22;40730;53.068;6.572;2022-09-17T14:07:00;16.80;66.00
54832;DHT22;40730;53.068;6.572;2022-09-17T14:09:55;16.90;65.00
54832;DHT22;40730;53.068;6.572;2022-09-17T14:21:29;15.30;67.90
54832;DHT22;40730;53.068;6.572;2022-09-17T14:23:57;15.10;69.40
54832;DHT22;40730;53.068;6.572;2022-09-17T14:31:40;14.40;74.90
54832;DHT22;40730;53.068;6.572;2022-09-17T14:34:12;14.00;86.10
54832;DHT22;40730;53.068;6.572;2022-09-17T14:36:41;13.50;92.60
54832;DHT22;40730;53.068;6.572;2022-09-17T14:39:19;13.00;98.70
54832;DHT22;40730;53.068;6.572;2022-09-17T14:41:46;12.60;99.90
54832;DHT22;40730;53.068;6.572;2022-09-17T14:44:19;12.40;99.90
54832;DHT22;40730;53.068;6.572;2022-09-17T14:46:55;12.20;99.90
54832;DHT22;40730;53.068;6.572;2022-09-17T14:51:50;12.10;99.90
54832;DHT22;40730;53.068;6.572;2022-09-17T14:54:32;12.30;99.90
54832;DHT22;40730;53.068;6.572;2022-09-17T14:57:16;12.40;99.90
54832;DHT22;40730;53.068;6.572;2022-09-17T14:59:55;12.50;99.90
54832;DHT22;40730;53.068;6.572;2022-09-17T15:04:57;12.50;99.90
54832;DHT22;40730;53.068;6.572;2022-09-17T15:07:25;12.50;99.90
54832;DHT22;40730;53.068;6.572;2022-09-17T15:09:51;12.50;99.90
54832;DHT22;40730;53.068;6.572;2022-09-17T15:12:28;12.50;99.90
54832;DHT22;40730;53.068;6.572;2022-09-17T15:14:54;12.60;99.90
54832;DHT22;40730;53.068;6.572;2022-09-17T15:17:21;12.60;99.90
54832;DHT22;40730;53.068;6.572;2022-09-17T15:19:56;12.70;99.90
54832;DHT22;40730;53.068;6.572;2022-09-17T15:22:24;12.70;99.90
54832;DHT22;40730;53.068;6.572;2022-09-17T15:25:03;12.70;99.90
54832;DHT22;40730;53.068;6.572;2022-09-17T15:27:39;12.60;99.90
54832;DHT22;40730;53.068;6.572;2022-09-17T15:30:22;12.60;99.90
54832;DHT22;40730;53.068;6.572;2022-09-17T15:32:48;12.40;99.90
54832;DHT22;40730;53.068;6.572;2022-09-17T15:37:43;12.30;99.90
54832;DHT22;40730;53.068;6.572;2022-09-17T15:40:14;12.40;99.90
54832;DHT22;40730;53.068;6.572;2022-09-17T15:42:47;12.50;99.90
54832;DHT22;40730;53.068;6.572;2022-09-17T15:45:26;12.60;99.90
54832;DHT22;40730;53.068;6.572;2022-09-17T15:47:56;12.70;99.90
54832;DHT22;40730;53.068;6.572;2022-09-17T15:50:27;12.80;99.90
54832;DHT22;40730;53.068;6.572;2022-09-17T15:53:10;12.90;99.90
54832;DHT22;40730;53.068;6.572;2022-09-17T15:55:42;13.00;99.90
54832;DHT22;40730;53.068;6.572;2022-09-17T15:58:50;13.10;99.90
54832;DHT22;40730;53.068;6.572;2022-09-17T16:08:44;13.10;99.90
54832;DHT22;40730;53.068;6.572;2022-09-17T16:11:16;13.00;99.90
54832;DHT22;40730;53.068;6.572;2022-09-17T16:13:45;12.80;99.90
54832;DHT22;40730;53.068;6.572;2022-09-17T16:16:17;12.60;99.90
54832;DHT22;40730;53.068;6.572;2022-09-17T16:18:43;12.50;99.90
54832;DHT22;40730;53.068;6.572;2022-09-17T16:21:10;12.30;99.90
54832;DHT22;40730;53.068;6.572;2022-09-17T16:23:36;12.20;99.90
54832;DHT22;40730;53.068;6.572;2022-09-17T16:26:02;12.10;99.90
54832;DHT22;40730;53.068;6.572;2022-09-17T16:28:28;12.00;99.90
54832;DHT22;40730;53.068;6.572;2022-09-17T16:30:54;11.90;99.90
54832;DHT22;40730;53.068;6.572;2022-09-17T16:33:20;11.80;99.90
54832;DHT22;40730;53.068;6.572;2022-09-17T16:35:46;11.80;99.90
54832;DHT22;40730;53.068;6.572;2022-09-17T16:38:11;11.80;99.90
54832;DHT22;40730;53.068;6.572;2022-09-17T16:40:41;11.80;99.90
54832;DHT22;40730;53.068;6.572;2022-09-17T16:43:08;11.90;99.90
54832;DHT22;40730;53.068;6.572;2022-09-17T16:45:34;11.90;99.90
54832;DHT22;40730;53.068;6.572;2022-09-17T16:48:00;12.00;99.90
54832;DHT22;40730;53.068;6.572;2022-09-17T16:50:25;12.00;99.90
54832;DHT22;40730;53.068;6.572;2022-09-17T16:52:52;12.10;99.90
54832;DHT22;40730;53.068;6.572;2022-09-17T16:55:18;12.10;99.90
54832;DHT22;40730;53.068;6.572;2022-09-17T16:57:45;12.20;99.90
54832;DHT22;40730;53.068;6.572;2022-09-17T17:00:13;12.30;99.90
54832;DHT22;40730;53.068;6.572;2022-09-17T17:02:41;12.40;99.90
54832;DHT22;40730;53.068;6.572;2022-09-17T17:05:07;12.40;99.90
54832;DHT22;40730;53.068;6.572;2022-09-17T17:07:35;12.30;99.90
54832;DHT22;40730;53.068;6.572;2022-09-17T17:10:02;12.30;99.90
54832;DHT22;40730;53.068;6.572;2022-09-17T17:12:28;12.30;99.90
54832;DHT22;40730;53.068;6.572;2022-09-17T17:14:55;12.30;99.90
54832;DHT22;40730;53.068;6.572;2022-09-17T17:17:20;12.20;99.90
54832;DHT22;40730;53.068;6.572;2022-09-17T17:19:46;12.20;99.90
54832;DHT22;40730;53.068;6.572;2022-09-17T17:22:13;12.20;99.90
54832;DHT22;40730;53.068;6.572;2022-09-17T17:24:39;12.20;99.90
54832;DHT22;40730;53.068;6.572;2022-09-17T17:27:05;12.20;99.90
54832;DHT22;40730;53.068;6.572;2022-09-17T17:29:30;12.20;99.90
54832;DHT22;40730;53.068;6.572;2022-09-17T17:31:56;12.10;99.90
54832;DHT22;40730;53.068;6.572;2022-09-17T17:34:22;12.00;99.90
54832;DHT22;40730;53.068;6.572;2022-09-17T17:36:48;12.00;99.90
54832;DHT22;40730;53.068;6.572;2022-09-17T17:39:14;11.90;99.90
54832;DHT22;40730;53.068;6.572;2022-09-17T17:41:39;11.80;99.90
54832;DHT22;40730;53.068;6.572;2022-09-17T17:44:05;11.70;99.90
54832;DHT22;40730;53.068;6.572;2022-09-17T17:46:31;11.70;99.90
54832;DHT22;40730;53.068;6.572;2022-09-17T17:48:57;11.70;99.90
54832;DHT22;40730;53.068;6.572;2022-09-17T17:51:22;11.70;99.90
54832;DHT22;40730;53.068;6.572;2022-09-17T17:53:49;11.60;99.90
54832;DHT22;40730;53.068;6.572;2022-09-17T17:56:16;11.50;99.90
54832;DHT22;40730;53.068;6.572;2022-09-17T17:58:42;11.40;99.90
54832;DHT22;40730;53.068;6.572;2022-09-17T18:03:38;11.10;99.90
54832;DHT22;40730;53.068;6.572;2022-09-17T18:06:05;11.00;99.90
54832;DHT22;40730;53.068;6.572;2022-09-17T18:08:31;10.90;99.90
54832;DHT22;40730;53.068;6.572;2022-09-17T18:10:59;10.80;99.90
54832;DHT22;40730;53.068;6.572;2022-09-17T18:13:27;10.80;99.90
54832;DHT22;40730;53.068;6.572;2022-09-17T18:15:57;10.80;99.90
54832;DHT22;40730;53.068;6.572;2022-09-17T18:18:24;10.80;99.90
54832;DHT22;40730;53.068;6.572;2022-09-17T18:20:51;10.90;99.90
54832;DHT22;40730;53.068;6.572;2022-09-17T18:23:20;10.90;99.90
54832;DHT22;40730;53.068;6.572;2022-09-17T18:25:55;10.80;99.90
54832;DHT22;40730;53.068;6.572;2022-09-17T18:28:21;10.80;99.90
54832;DHT22;40730;53.068;6.572;2022-09-17T18:30:47;10.70;99.90
54832;DHT22;40730;53.068;6.572;2022-09-17T18:33:16;10.70;99.90
54832;DHT22;40730;53.068;6.572;2022-09-17T18:35:42;10.60;99.90
54832;DHT22;40730;53.068;6.572;2022-09-17T18:38:08;10.50;99.90
54832;DHT22;40730;53.068;6.572;2022-09-17T18:40:33;10.60;99.90
54832;DHT22;40730;53.068;6.572;2022-09-17T18:42:59;10.50;99.90
54832;DHT22;40730;53.068;6.572;2022-09-17T18:45:24;10.50;99.90
54832;DHT22;40730;53.068;6.572;2022-09-17T18:47:51;10.50;99.90
54832;DHT22;40730;53.068;6.572;2022-09-17T18:50:17;10.50;99.90
54832;DHT22;40730;53.068;6.572;2022-09-17T18:52:43;10.50;99.90
54832;DHT22;40730;53.068;6.572;2022-09-17T18:55:08;10.60;99.90
54832;DHT22;40730;53.068;6.572;2022-09-17T18:57:34;10.60;99.90